Time;durP1;ratioP1;P1;durP2;ratioP2;P2;SDS_P1;SDS_P2;PMS_P1;PMS_P2;Temp;Humidity;BMP_temperature;BMP_pressure;BME280_temperature;BME280_humidity;BME280_pressure;Samples;Min_cycle;Max_cycle;Signal;HPM_P1;HPM_P2
2021/12/24 00:00:59;;;;;;;40.83;27.13;;;;;;;6.50;64.84;99445.97;4925783;28;123270;-83
2021/12/24 00:03:25;;;;;;;36.35;26.67;;;;;;;6.42;64.69;99432.66;4962425;28;119630;-83
2021/12/24 00:05:51;;;;;;;36.38;25.52;;;;;;;6.48;64.84;99432.81;4944808;28;122439;-86
2021/12/24 00:08:17;;;;;;;37.47;26.50;;;;;;;6.51;65.25;99429.19;4929382;28;123701;-85
2021/12/24 00:10:48;;;;;;;37.83;25.27;;;;;;;6.61;64.74;99429.94;4952493;28;119789;-85
2021/12/24 00:13:15;;;;;;;36.75;24.52;;;;;;;6.60;64.51;99434.63;4933488;28;122694;-87
2021/12/24 00:18:53;;;;;;;41.00;26.15;;;;;;;6.66;64.39;99434.81;4930869;28;121066;-85
2021/12/24 00:35:22;;;;;;;35.63;25.10;;;;;;;6.67;64.48;99439.03;4930269;28;121798;-86
2021/12/24 00:37:48;;;;;;;43.80;26.40;;;;;;;6.66;64.32;99437.53;4930469;28;119692;-85
2021/12/24 00:40:21;;;;;;;49.13;28.23;;;;;;;6.68;64.50;99446.78;4949521;28;119885;-86
2021/12/24 00:42:53;;;;;;;38.65;26.02;;;;;;;6.72;64.58;99452.81;4945157;28;122941;-87
2021/12/24 00:45:21;;;;;;;43.63;27.45;;;;;;;6.74;64.24;99453.13;4930210;28;119781;-85
2021/12/24 00:47:48;;;;;;;45.10;28.17;;;;;;;6.65;64.72;99442.22;4926695;28;124271;-84
2021/12/24 00:50:20;;;;;;;43.15;26.02;;;;;;;6.74;64.45;99450.41;4945276;28;122497;-84
2021/12/24 00:52:49;;;;;;;41.60;25.75;;;;;;;6.70;64.09;99440.88;4946061;28;119875;-85
2021/12/24 00:55:17;;;;;;;56.45;26.90;;;;;;;6.80;64.49;99456.00;4933623;28;122094;-83
2021/12/24 00:57:51;;;;;;;39.40;27.35;;;;;;;6.80;64.15;99460.69;4932032;28;123728;-85
2021/12/24 01:00:38;;;;;;;40.50;27.67;;;;;;;6.78;64.79;99456.44;4927817;28;120547;-85
2021/12/24 01:03:06;;;;;;;37.15;25.85;;;;;;;6.81;64.58;99462.19;4908819;28;123376;-86
2021/12/24 01:05:34;;;;;;;49.97;28.48;;;;;;;6.60;64.34;99429.19;4925509;28;121436;-82
2021/12/24 01:08:02;;;;;;;39.17;26.92;;;;;;;6.77;64.01;99457.66;4909925;28;122745;-82
2021/12/24 01:10:32;;;;;;;41.28;26.45;;;;;;;6.81;64.27;99449.34;4942899;28;121713;-84
2021/12/24 01:12:58;;;;;;;45.47;28.20;;;;;;;6.82;64.38;99444.63;4956281;28;122363;-86
2021/12/24 01:15:24;;;;;;;49.78;28.05;;;;;;;6.83;64.53;99446.91;4926472;28;122213;-81
2021/12/24 01:20:31;;;;;;;46.88;26.33;;;;;;;6.69;64.67;99412.84;4929072;28;119935;-84
2021/12/24 01:25:41;;;;;;;47.95;28.63;;;;;;;6.83;64.53;99427.06;4948375;28;119636;-83
2021/12/24 01:39:15;;;;;;;46.55;26.90;;;;;;;6.75;64.12;99421.94;4939712;28;120700;-84
2021/12/24 01:44:30;;;;;;;48.40;28.63;;;;;;;6.82;64.35;99433.75;4965475;28;121105;-84
2021/12/24 01:47:06;;;;;;;47.08;28.08;;;;;;;6.82;64.59;99428.28;4960478;28;120287;-84
2021/12/24 01:49:33;;;;;;;43.13;28.80;;;;;;;6.78;64.61;99426.47;4924986;28;122549;-84
2021/12/24 01:52:02;;;;;;;43.17;28.27;;;;;;;6.80;64.36;99430.72;4944032;28;123113;-83
2021/12/24 01:54:27;;;;;;;49.28;27.88;;;;;;;6.72;64.07;99416.63;4929652;28;120965;-84
2021/12/24 01:56:56;;;;;;;47.10;27.95;;;;;;;6.85;64.55;99443.72;4945621;28;122125;-84
2021/12/24 01:59:21;;;;;;;45.90;28.48;;;;;;;6.75;64.22;99426.63;4913818;28;122539;-84
2021/12/24 02:01:49;;;;;;;45.05;28.05;;;;;;;6.85;64.75;99449.94;4917424;28;121405;-84
2021/12/24 02:04:16;;;;;;;48.42;28.02;;;;;;;6.85;64.46;99455.38;4952789;28;121490;-84
2021/12/24 02:06:42;;;;;;;40.53;26.00;;;;;;;6.80;64.29;99439.66;4933112;28;120259;-84
2021/12/24 02:09:09;;;;;;;39.05;26.10;;;;;;;6.85;64.05;99441.00;4934418;28;122284;-84
2021/12/24 02:11:37;;;;;;;36.20;24.58;;;;;;;6.86;64.04;99443.31;4940328;28;120527;-83
2021/12/24 02:14:15;;;;;;;42.72;26.25;;;;;;;6.89;64.09;99445.09;4964550;28;119798;-84
2021/12/24 02:29:56;;;;;;;;;;;;;;;6.90;64.03;99445.88;4950210;28;122279;-82
2021/12/24 02:32:22;;;;;;;53.22;27.88;;;;;;;6.89;63.98;99441.63;4965030;28;120982;-83
2021/12/24 02:34:48;;;;;;;54.08;30.20;;;;;;;6.88;64.39;99442.84;4946493;28;120362;-81
2021/12/24 02:37:14;;;;;;;53.70;28.17;;;;;;;6.81;64.57;99432.22;4933256;28;122428;-82
2021/12/24 02:39:40;;;;;;;64.85;28.73;;;;;;;6.86;64.30;99440.56;4933595;28;120876;-83
2021/12/24 02:42:15;;;;;;;57.45;30.27;;;;;;;6.94;64.34;99446.47;4950218;28;119568;-82
2021/12/24 02:44:42;;;;;;;71.40;29.33;;;;;;;6.92;64.32;99444.19;4964402;28;122142;-82
2021/12/24 02:47:24;;;;;;;;;;;;;;;;;;;;;
2021/12/24 02:53:56;;;;;;;60.60;29.58;;;;;;;6.92;64.42;99435.25;4933659;28;119672;-82
2021/12/24 02:55:15;;;;;;;54.80;29.60;;;;;;;6.86;64.73;99435.13;4945561;28;119733;-82
2021/12/24 02:57:41;;;;;;;96.95;31.75;;;;;;;6.94;64.47;99435.56;4964891;28;119766;-82
2021/12/24 03:00:19;;;;;;;76.97;30.85;;;;;;;6.94;64.13;99425.41;4930257;28;122992;-83
2021/12/24 03:02:47;;;;;;;91.10;34.45;;;;;;;6.95;64.57;99420.72;4931061;28;119844;-82
2021/12/24 03:05:15;;;;;;;112.30;34.28;;;;;;;6.91;63.97;99420.88;4929583;28;119474;-82
2021/12/24 03:07:42;;;;;;;100.50;35.85;;;;;;;6.92;64.46;99425.13;4947014;28;122777;-82
2021/12/24 03:10:13;;;;;;;86.60;34.17;;;;;;;6.82;64.32;99406.47;4934677;28;119763;-83
2021/12/24 03:12:40;;;;;;;86.28;38.42;;;;;;;6.90;64.72;99410.44;4949978;28;122756;-82
2021/12/24 03:15:07;;;;;;;79.13;38.00;;;;;;;6.84;64.82;99406.78;4932404;28;119880;-82
2021/12/24 03:17:33;;;;;;;75.78;39.30;;;;;;;6.89;64.62;99406.19;4930758;28;123071;-82
2021/12/24 03:20:07;;;;;;;84.60;38.83;;;;;;;6.89;64.27;99415.13;4964240;28;119708;-81
2021/12/24 03:25:08;;;;;;;87.95;39.17;;;;;;;6.85;64.34;99409.06;4932441;28;122188;-82
2021/12/24 03:27:33;;;;;;;92.60;38.58;;;;;;;6.91;64.24;99425.56;4945891;28;122505;-82
2021/12/24 03:29:59;;;;;;;77.65;41.08;;;;;;;6.87;64.31;99416.78;4930056;28;120006;-83
2021/12/24 03:32:25;;;;;;;105.32;42.55;;;;;;;6.94;64.26;99439.03;4962958;28;122594;-84
2021/12/24 03:34:52;;;;;;;84.15;40.75;;;;;;;6.94;64.76;99441.03;4932283;28;122532;-84
2021/12/24 03:37:18;;;;;;;80.55;43.05;;;;;;;6.85;64.58;99436.31;4929755;28;122386;-84
2021/12/24 03:39:44;;;;;;;78.85;41.88;;;;;;;6.82;64.92;99433.75;4944828;28;123288;-84
2021/12/24 03:42:10;;;;;;;84.40;41.20;;;;;;;6.85;63.97;99446.44;4946500;28;119815;-83
2021/12/24 03:44:44;;;;;;;92.03;40.45;;;;;;;6.86;64.25;99446.03;4933537;28;121859;-84
2021/12/24 03:47:16;;;;;;;80.07;37.90;;;;;;;6.86;64.53;99445.25;4931977;28;122677;-84
2021/12/24 03:50:02;;;;;;;85.60;41.08;;;;;;;6.85;64.66;99451.91;4949169;28;119857;-82
2021/12/24 03:55:10;;;;;;;97.50;42.63;;;;;;;6.86;64.48;99458.88;4933139;28;124317;-83
2021/12/24 03:57:40;;;;;;;89.20;44.45;;;;;;;6.89;64.85;99468.88;4950680;28;120423;-84
2021/12/24 04:00:29;;;;;;;89.40;43.20;;;;;;;6.86;64.49;99456.13;4949910;28;121186;-83
2021/12/24 04:03:14;;;;;;;92.18;44.78;;;;;;;6.89;64.73;99460.72;4938508;28;119393;-83
2021/12/24 04:05:43;;;;;;;81.97;43.38;;;;;;;6.88;64.26;99459.19;4949250;28;121298;-83
2021/12/24 04:08:30;;;;;;;81.40;44.28;;;;;;;6.82;64.53;99455.53;4947395;28;123072;-82
2021/12/24 04:11:07;;;;;;;79.72;43.05;;;;;;;6.81;64.25;99454.03;4947352;28;119361;-83
2021/12/24 04:13:37;;;;;;;86.03;43.92;;;;;;;6.87;64.51;99466.63;4921831;28;122222;-83
2021/12/24 04:16:04;;;;;;;79.25;44.13;;;;;;;6.86;64.26;99456.13;4963368;28;120456;-83
2021/12/24 04:26:29;;;;;;;84.10;44.10;;;;;;;6.86;64.19;99467.03;4946362;28;122143;-83
2021/12/24 04:28:56;;;;;;;83.22;44.30;;;;;;;6.79;63.73;99454.47;4963775;28;120693;-82
2021/12/24 04:31:36;;;;;;;80.68;45.33;;;;;;;6.84;64.39;99475.69;4915651;28;119847;-84
2021/12/24 04:34:26;;;;;;;77.45;43.90;;;;;;;6.75;64.38;99468.25;4948371;28;121822;-84
2021/12/24 05:03:45;;;;;;;77.60;44.55;;;;;;;6.76;63.97;99485.38;4932048;28;122131;-84
2021/12/24 05:11:20;;;;;;;80.35;46.85;;;;;;;6.67;63.95;99483.41;4957047;28;120059;-84
2021/12/24 05:13:46;;;;;;;80.00;46.03;;;;;;;6.68;63.66;99478.72;4964672;28;120005;-83
2021/12/24 05:17:03;;;;;;;78.90;47.47;;;;;;;6.62;63.63;99481.25;4931277;28;122838;-84
2021/12/24 05:22:44;;;;;;;78.18;47.33;;;;;;;6.67;64.01;99510.66;4962536;28;119859;-85
2021/12/24 05:25:13;;;;;;;76.00;47.33;;;;;;;6.72;63.61;99512.00;4946973;28;122296;-84
2021/12/24 05:27:39;;;;;;;75.28;48.10;;;;;;;6.64;63.47;99500.66;4931168;28;122978;-82
2021/12/24 05:30:06;;;;;;;82.63;49.70;;;;;;;6.66;63.45;99511.84;4945295;28;120823;-84
2021/12/24 05:32:31;;;;;;;82.97;49.63;;;;;;;6.62;63.94;99500.31;4924355;28;123018;-83
2021/12/24 05:34:58;;;;;;;81.80;49.17;;;;;;;6.53;63.87;99483.22;4946665;28;119952;-84
2021/12/24 05:37:25;;;;;;;86.30;51.35;;;;;;;6.64;63.58;99500.66;4948293;28;122299;-83
2021/12/24 05:39:50;;;;;;;82.50;50.40;;;;;;;6.71;63.51;99513.22;4950129;28;122847;-84
2021/12/24 05:42:25;;;;;;;82.72;48.80;;;;;;;6.68;63.63;99506.72;4949687;28;121244;-84
2021/12/24 05:44:50;;;;;;;76.00;45.17;;;;;;;6.58;63.67;99480.66;4949047;28;122904;-84
2021/12/24 05:47:37;;;;;;;78.40;46.33;;;;;;;6.61;63.37;99478.97;4932229;28;122608;-83
2021/12/24 05:50:06;;;;;;;85.85;46.53;;;;;;;6.68;63.83;99479.47;4948278;28;120316;-81
2021/12/24 05:52:44;;;;;;;81.53;46.70;;;;;;;6.64;63.46;99469.94;4950727;28;123124;-84
2021/12/24 05:55:32;;;;;;;79.85;45.45;;;;;;;6.60;63.85;99455.66;4919495;28;122796;-85
2021/12/24 05:58:08;;;;;;;83.13;45.53;;;;;;;6.65;63.76;99466.75;4931614;28;122954;-84
2021/12/24 06:00:38;;;;;;;87.65;45.72;;;;;;;6.68;63.97;99465.84;4948760;28;122854;-85
2021/12/24 06:03:06;;;;;;;74.20;43.25;;;;;;;6.67;63.55;99469.78;4957058;28;120580;-85
2021/12/24 06:05:36;;;;;;;84.40;46.00;;;;;;;6.60;63.50;99456.44;4931660;28;122227;-85
2021/12/24 06:08:03;;;;;;;84.78;44.92;;;;;;;6.68;63.85;99463.13;4962899;28;120295;-82
2021/12/24 06:10:28;;;;;;;87.68;44.95;;;;;;;6.62;63.55;99445.06;4934013;28;119718;-83
2021/12/24 06:12:54;;;;;;;83.20;43.13;;;;;;;6.70;63.89;99449.78;4952261;28;121813;-85
2021/12/24 06:15:23;;;;;;;89.80;45.10;;;;;;;6.57;63.81;99429.34;4934070;28;119896;-85
2021/12/24 06:17:51;;;;;;;85.35;45.78;;;;;;;6.53;63.70;99417.84;4952642;28;119770;-85
2021/12/24 06:20:17;;;;;;;82.93;43.88;;;;;;;6.68;63.41;99435.88;4947948;28;122112;-86
2021/12/24 06:22:43;;;;;;;84.32;43.83;;;;;;;6.62;63.71;99428.72;4947275;28;119949;-85
2021/12/24 06:25:09;;;;;;;85.30;44.13;;;;;;;6.62;63.77;99432.22;4948380;28;122683;-85
2021/12/24 06:27:34;;;;;;;81.93;42.75;;;;;;;6.60;63.45;99429.19;4919314;28;122982;-85
2021/12/24 06:30:00;;;;;;;78.95;42.97;;;;;;;6.63;63.34;99433.75;4959101;28;119983;-85
2021/12/24 06:32:26;;;;;;;79.88;42.60;;;;;;;6.61;63.66;99424.50;4951407;28;122070;-85
2021/12/24 06:34:52;;;;;;;82.15;43.60;;;;;;;6.58;63.43;99426.16;4952910;28;122994;-84
2021/12/24 06:37:18;;;;;;;90.22;44.70;;;;;;;6.56;63.43;99425.84;4948244;28;122007;-85
2021/12/24 06:39:43;;;;;;;82.45;42.67;;;;;;;6.64;63.37;99440.72;4929555;28;123139;-84
2021/12/24 06:42:09;;;;;;;86.00;44.67;;;;;;;6.68;63.66;99446.78;4949000;28;119472;-85
2021/12/24 06:44:35;;;;;;;84.55;44.05;;;;;;;6.62;63.47;99442.34;4950581;28;119685;-85
2021/12/24 06:47:01;;;;;;;80.88;43.70;;;;;;;6.66;63.26;99443.75;4948171;28;122588;-85
2021/12/24 06:49:28;;;;;;;89.75;44.88;;;;;;;6.72;63.77;99450.09;4947578;28;119466;-86
2021/12/24 06:51:54;;;;;;;91.97;44.10;;;;;;;6.65;63.69;99442.22;4948974;28;119398;-85
2021/12/24 06:54:19;;;;;;;83.40;44.10;;;;;;;6.69;63.37;99440.09;4915883;28;122474;-85
2021/12/24 06:56:47;;;;;;;85.80;44.33;;;;;;;6.75;63.76;99441.00;4970068;28;121364;-84
2021/12/24 06:59:15;;;;;;;83.80;43.03;;;;;;;6.74;63.36;99444.94;4935484;28;123091;-84
2021/12/24 07:01:42;;;;;;;104.57;44.75;;;;;;;6.73;63.57;99437.97;4949399;28;120189;-84
2021/12/24 07:04:08;;;;;;;93.95;46.60;;;;;;;6.67;63.21;99428.91;4949750;28;122805;-84
2021/12/24 07:06:34;;;;;;;91.22;44.97;;;;;;;6.74;63.84;99436.00;4953501;28;122827;-85
2021/12/24 07:08:59;;;;;;;90.63;44.25;;;;;;;6.80;63.35;99456.00;4966489;28;119558;-84
2021/12/24 07:11:25;;;;;;;91.30;47.30;;;;;;;6.78;63.11;99451.00;4947253;28;122684;-84
2021/12/24 07:13:52;;;;;;;92.57;45.15;;;;;;;6.80;63.15;99452.50;4947794;28;122680;-85
2021/12/24 07:16:18;;;;;;;92.57;46.47;;;;;;;6.68;63.41;99441.31;4948064;28;120011;-85
2021/12/24 07:18:44;;;;;;;80.53;43.72;;;;;;;6.75;63.65;99457.38;4969765;28;119522;-85
2021/12/24 07:21:09;;;;;;;81.28;44.47;;;;;;;6.71;63.64;99453.28;4965222;28;119731;-84
2021/12/24 07:23:38;;;;;;;88.95;46.47;;;;;;;6.77;63.33;99467.81;4949662;28;119388;-85
2021/12/24 07:26:03;;;;;;;88.25;44.88;;;;;;;6.76;63.36;99474.47;4948171;28;122566;-84
2021/12/24 07:28:29;;;;;;;95.93;46.35;;;;;;;6.75;63.94;99473.72;4916853;28;119561;-83
2021/12/24 07:30:55;;;;;;;104.63;48.67;;;;;;;6.75;63.67;99473.72;4933503;28;122519;-84
2021/12/24 07:33:20;;;;;;;90.95;46.35;;;;;;;6.73;63.44;99481.59;4932110;28;122640;-84
2021/12/24 07:35:46;;;;;;;80.93;44.90;;;;;;;6.70;63.10;99479.78;4915035;28;121682;-85
2021/12/24 07:38:13;;;;;;;79.28;42.75;;;;;;;6.76;63.48;99486.13;4931820;28;122069;-85
2021/12/24 07:40:44;;;;;;;80.90;41.92;;;;;;;6.69;63.08;99475.53;4928760;28;123000;-86
2021/12/24 07:43:09;;;;;;;87.20;43.67;;;;;;;6.62;63.23;99464.91;4945580;28;121763;-84
2021/12/24 07:45:37;;;;;;;89.90;44.88;;;;;;;6.75;63.08;99481.13;4945886;28;121103;-83
2021/12/24 07:48:10;;;;;;;83.20;43.55;;;;;;;6.69;63.61;99480.97;4960180;28;119467;-86
2021/12/24 07:53:07;;;;;;;88.50;42.25;;;;;;;6.72;63.56;99490.97;4944641;28;122752;-84
2021/12/24 07:55:37;;;;;;;87.78;44.03;;;;;;;6.64;63.49;99476.13;4945563;28;120363;-85
2021/12/24 07:58:07;;;;;;;104.72;46.28;;;;;;;6.67;63.13;99477.19;4963177;28;121836;-85
2021/12/24 08:00:37;;;;;;;88.10;44.40;;;;;;;6.66;63.31;99483.84;4928945;28;123606;-85
2021/12/24 08:03:03;;;;;;;87.40;44.38;;;;;;;6.67;63.31;99488.84;4948817;28;120970;-86
2021/12/24 08:05:30;;;;;;;73.63;41.22;;;;;;;6.73;63.46;99497.94;4962921;28;120411;-86
2021/12/24 08:07:56;;;;;;;91.78;42.85;;;;;;;6.68;63.54;99486.88;4927837;28;120861;-87
2021/12/24 08:10:24;;;;;;;84.53;42.67;;;;;;;6.69;63.51;99497.31;4930050;28;122026;-86
2021/12/24 08:12:52;;;;;;;73.63;40.72;;;;;;;6.75;63.30;99511.88;4946295;28;119976;-86
2021/12/24 08:15:20;;;;;;;71.82;38.65;;;;;;;6.73;63.89;99511.56;4929646;28;124189;-86
2021/12/24 08:17:46;;;;;;;76.90;40.70;;;;;;;6.56;63.55;99485.03;4945942;28;121102;-85
2021/12/24 08:20:13;;;;;;;68.25;38.33;;;;;;;6.72;63.05;99509.28;4931927;28;122329;-86
2021/12/24 08:22:39;;;;;;;71.20;38.67;;;;;;;6.71;63.20;99497.63;4939335;28;120258;-86
2021/12/24 08:25:08;;;;;;;72.07;38.80;;;;;;;6.75;63.26;99502.94;4963171;28;120340;-85
2021/12/24 08:27:35;;;;;;;80.43;41.22;;;;;;;6.73;63.31;99511.56;4946892;28;119918;-86
2021/12/24 08:30:03;;;;;;;79.68;43.55;;;;;;;6.60;63.09;99482.91;4945867;28;122591;-85
2021/12/24 08:32:29;;;;;;;73.45;40.67;;;;;;;6.66;63.51;99505.66;4929842;28;122799;-86
2021/12/24 08:34:55;;;;;;;79.90;42.20;;;;;;;6.67;63.50;99518.06;4953966;28;119482;-85
2021/12/24 08:37:23;;;;;;;79.30;41.80;;;;;;;6.72;63.39;99520.94;4944797;28;121801;-86
2021/12/24 08:39:52;;;;;;;81.70;40.85;;;;;;;6.64;63.36;99519.72;4963092;28;119729;-84
2021/12/24 08:42:17;;;;;;;89.32;45.65;;;;;;;6.68;63.10;99536.69;4947844;28;121032;-86
2021/12/24 08:44:43;;;;;;;89.72;42.38;;;;;;;6.64;63.47;99525.19;4936517;28;121722;-85
2021/12/24 08:47:09;;;;;;;82.70;41.65;;;;;;;6.67;63.09;99521.53;4947096;28;119803;-87
2021/12/24 08:49:35;;;;;;;73.50;39.90;;;;;;;6.69;62.67;99519.13;4945437;28;122457;-85
2021/12/24 08:52:00;;;;;;;88.32;46.50;;;;;;;6.61;63.37;99509.72;4967550;28;120169;-87
2021/12/24 08:54:26;;;;;;;95.07;44.90;;;;;;;6.70;63.30;99526.09;4948262;28;120048;-85
2021/12/24 08:56:53;;;;;;;87.63;42.78;;;;;;;6.77;62.96;99535.94;4931954;28;122053;-85
2021/12/24 08:59:19;;;;;;;85.22;43.72;;;;;;;6.58;63.16;99510.63;4948610;28;119794;-85
2021/12/24 09:01:45;;;;;;;72.82;37.42;;;;;;;6.80;62.99;99545.19;4932347;28;119896;-85
2021/12/24 09:04:12;;;;;;;76.70;41.20;;;;;;;6.69;63.15;99529.28;4945692;28;123290;-84
2021/12/24 09:06:38;;;;;;;107.35;49.20;;;;;;;6.75;63.10;99543.81;4954107;28;120276;-86
2021/12/24 09:09:06;;;;;;;92.72;46.67;;;;;;;6.77;63.45;99541.38;4926944;28;119647;-86
2021/12/24 09:11:39;;;;;;;87.32;43.42;;;;;;;6.59;62.97;99519.53;4963642;28;122364;-86
2021/12/24 09:14:05;;;;;;;77.75;39.63;;;;;;;6.81;63.43;99552.16;4946725;28;119359;-85
2021/12/24 09:16:34;;;;;;;77.22;38.50;;;;;;;6.80;63.32;99551.38;4924956;28;122009;-85
2021/12/24 09:19:04;;;;;;;79.95;38.88;;;;;;;6.82;63.14;99548.19;4930726;28;123537;-85
2021/12/24 09:21:31;;;;;;;78.65;38.45;;;;;;;6.86;63.37;99557.78;4950889;28;122834;-88
2021/12/24 09:23:58;;;;;;;76.25;39.55;;;;;;;6.85;63.42;99563.66;4949243;28;122336;-88
2021/12/24 09:26:29;;;;;;;83.05;41.60;;;;;;;6.92;63.18;99563.38;4931034;28;119735;-87
2021/12/24 09:28:58;;;;;;;77.00;39.83;;;;;;;6.94;63.03;99560.97;4936112;28;119733;-86
2021/12/24 09:31:25;;;;;;;71.40;38.58;;;;;;;7.01;63.41;99566.88;4947153;28;120378;-86
2021/12/24 09:33:51;;;;;;;70.88;36.13;;;;;;;7.05;62.94;99572.16;4949862;28;119889;-86
2021/12/24 09:36:25;;;;;;;71.35;38.25;;;;;;;6.97;62.86;99557.31;4944443;28;122318;-85
2021/12/24 09:38:51;;;;;;;;;;;;;;;7.09;63.05;99580.97;4945250;28;120058;-85
2021/12/24 09:41:18;;;;;;;63.53;34.00;;;;;;;7.15;62.87;99586.59;4960050;28;119804;-85
2021/12/24 09:43:44;;;;;;;58.38;33.78;;;;;;;7.18;62.90;99589.16;4944673;28;122120;-86
2021/12/24 09:46:12;;;;;;;61.00;33.22;;;;;;;7.09;63.04;99579.00;4928833;28;123406;-85
2021/12/24 09:48:39;;;;;;;61.72;34.22;;;;;;;7.13;63.22;99586.28;4945829;28;119754;-86
2021/12/24 09:51:05;;;;;;;61.65;34.47;;;;;;;7.22;63.26;99603.41;4947026;28;120484;-87
2021/12/24 09:53:30;;;;;;;57.50;32.10;;;;;;;7.15;63.19;99595.53;4928377;28;119757;-86
2021/12/24 09:55:56;;;;;;;58.30;32.47;;;;;;;7.23;63.21;99604.91;4946097;28;122205;-85
2021/12/24 09:58:22;;;;;;;58.80;31.33;;;;;;;7.20;62.84;99610.53;4944453;28;120196;-85
2021/12/24 10:00:47;;;;;;;51.78;29.73;;;;;;;7.23;63.24;99623.25;4949322;28;120786;-83
2021/12/24 10:03:30;;;;;;;45.80;28.88;;;;;;;7.06;62.82;99607.16;4935227;28;122812;-86
2021/12/24 10:05:59;;;;;;;46.17;27.45;;;;;;;7.09;61.98;99621.84;4930416;28;120245;-84
2021/12/24 10:08:27;;;;;;;44.50;25.20;;;;;;;7.08;62.01;99636.69;4942988;28;121327;-86
2021/12/24 10:11:01;;;;;;;45.67;26.45;;;;;;;6.93;62.35;99641.97;4922102;28;120585;-84
2021/12/24 10:13:42;;;;;;;45.35;26.45;;;;;;;6.76;62.28;99630.56;4945547;28;122569;-85
2021/12/24 10:16:21;;;;;;;40.45;24.75;;;;;;;6.74;61.99;99652.06;4941502;28;122636;-86
2021/12/24 10:18:50;;;;;;;43.45;26.92;;;;;;;6.61;62.56;99659.56;4942713;28;123100;-84
2021/12/24 10:21:22;;;;;;;42.13;24.42;;;;;;;6.51;62.28;99649.09;4943375;28;119719;-85
2021/12/24 10:23:54;;;;;;;43.75;25.20;;;;;;;6.51;62.90;99657.25;4927942;28;121584;-86
2021/12/24 10:26:28;;;;;;;38.90;23.50;;;;;;;6.39;62.37;99647.97;4946606;28;122700;-85
2021/12/24 10:29:03;;;;;;;35.75;21.73;;;;;;;6.46;62.86;99670.25;4963067;28;122441;-87
2021/12/24 10:31:35;;;;;;;34.60;20.38;;;;;;;6.44;62.78;99663.75;4961951;28;122311;-86
2021/12/24 10:34:11;;;;;;;30.55;19.35;;;;;;;6.38;62.21;99662.78;4934086;28;123887;-87
2021/12/24 10:36:49;;;;;;;30.17;19.17;;;;;;;6.47;62.20;99676.47;4949663;28;120121;-86
2021/12/24 10:39:15;;;;;;;30.02;19.05;;;;;;;6.37;62.27;99662.00;4953211;28;124125;-85
2021/12/24 10:41:44;;;;;;;32.58;18.65;;;;;;;6.51;62.83;99679.81;4952895;28;119440;-86
2021/12/24 10:44:21;;;;;;;29.27;19.63;;;;;;;6.54;62.51;99686.31;4914953;28;122154;-87
2021/12/24 10:47:08;;;;;;;31.85;18.23;;;;;;;6.54;62.37;99689.81;4943257;28;123600;-85
2021/12/24 10:55:09;;;;;;;33.25;19.00;;;;;;;6.53;62.42;99691.00;4935868;28;122777;-86
2021/12/24 10:57:37;;;;;;;31.10;18.00;;;;;;;6.44;62.40;99686.28;4939127;28;121375;-87
2021/12/24 11:00:20;;;;;;;32.35;18.13;;;;;;;6.54;62.41;99692.53;4909608;28;123303;-87
2021/12/24 11:03:07;;;;;;;31.25;19.60;;;;;;;6.57;62.38;99699.06;4934943;28;120093;-85
2021/12/24 11:05:43;;;;;;;26.77;17.63;;;;;;;6.56;62.28;99697.53;4935690;28;122086;-86
2021/12/24 11:08:18;;;;;;;25.30;16.95;;;;;;;6.58;62.59;99701.31;4954064;28;122633;-84
2021/12/24 11:10:50;;;;;;;26.83;16.52;;;;;;;6.45;62.59;99698.69;4910548;28;119914;-87
2021/12/24 11:13:19;;;;;;;26.75;15.60;;;;;;;6.57;62.24;99716.16;4933448;28;121494;-85
2021/12/24 11:15:52;;;;;;;24.33;15.15;;;;;;;6.63;62.07;99719.84;4953993;28;120292;-87
2021/12/24 11:18:17;;;;;;;25.98;15.77;;;;;;;6.63;61.87;99727.25;4953309;28;119654;-86
2021/12/24 11:20:44;;;;;;;24.27;14.68;;;;;;;6.40;62.04;99702.00;4954511;28;119980;-85
2021/12/24 11:23:15;;;;;;;23.23;13.38;;;;;;;6.55;62.35;99732.19;4951357;28;119496;-85
2021/12/24 11:25:52;;;;;;;23.58;14.18;;;;;;;6.55;62.20;99737.63;4917778;28;122001;-86
2021/12/24 11:28:19;;;;;;;20.25;13.43;;;;;;;6.39;62.27;99714.09;4928405;28;122845;-83
2021/12/24 11:30:49;;;;;;;22.30;12.50;;;;;;;6.54;62.28;99740.81;4934681;28;121487;-86
2021/12/24 11:33:19;;;;;;;19.13;11.40;;;;;;;6.45;62.72;99733.34;4934185;28;122257;-86
2021/12/24 11:35:47;;;;;;;16.33;9.52;;;;;;;6.49;62.00;99744.88;4954940;28;119839;-87
2021/12/24 11:38:15;;;;;;;10.70;5.40;;;;;;;6.46;61.35;99751.97;4936729;28;120697;-84
2021/12/24 11:40:45;;;;;;;7.32;4.00;;;;;;;6.29;62.01;99752.59;4953747;28;121306;-88
2021/12/24 11:43:11;;;;;;;8.73;2.65;;;;;;;6.07;61.62;99738.97;4946902;28;123539;-84
2021/12/24 11:45:37;;;;;;;9.13;2.10;;;;;;;5.95;61.15;99746.00;4952313;28;120877;-87
2021/12/24 11:48:31;;;;;;;9.98;2.60;;;;;;;6.20;61.10;99782.50;4937771;28;124191;-86
2021/12/24 11:51:07;;;;;;;5.47;1.60;;;;;;;5.62;61.70;99720.25;4941938;28;120169;-90
2021/12/24 11:53:38;;;;;;;6.53;2.00;;;;;;;5.82;61.65;99747.97;4917311;28;122046;-89
2021/12/24 11:56:07;;;;;;;4.93;1.60;;;;;;;5.99;61.59;99779.28;4953366;28;122507;-87
2021/12/24 11:58:44;;;;;;;4.88;1.63;;;;;;;6.02;62.06;99783.84;4975343;28;119735;-84
2021/12/24 12:01:16;;;;;;;7.32;1.83;;;;;;;5.78;61.54;99741.88;4940270;28;122113;-90
2021/12/24 12:03:52;;;;;;;7.38;1.90;;;;;;;5.48;60.37;99714.09;4944644;28;122700;-88
2021/12/24 12:06:26;;;;;;;10.32;2.30;;;;;;;5.92;60.86;99797.84;4946239;28;120933;-86
2021/12/24 12:09:17;;;;;;;9.15;2.13;;;;;;;5.55;60.48;99751.19;4914960;28;122882;-86
2021/12/24 12:11:57;;;;;;;5.55;1.63;;;;;;;5.64;60.53;99759.41;4952521;28;119687;-87
2021/12/24 12:14:25;;;;;;;8.93;2.00;;;;;;;5.75;60.31;99789.78;4937916;28;121782;-87
2021/12/24 12:16:56;;;;;;;5.35;1.50;;;;;;;5.92;58.97;99814.94;4944873;28;121344;-88
2021/12/24 12:19:43;;;;;;;7.40;1.70;;;;;;;5.79;59.21;99804.03;4955364;28;120771;-85
2021/12/24 12:24:57;;;;;;;4.50;1.42;;;;;;;5.84;58.04;99838.09;4973674;28;123291;-87
2021/12/24 12:27:30;;;;;;;6.28;1.63;;;;;;;5.38;57.98;99780.44;4911755;28;120958;-88
2021/12/24 12:29:56;;;;;;;7.18;1.52;;;;;;;5.66;58.05;99822.31;4937210;28;120084;-90
2021/12/24 12:32:24;;;;;;;6.63;1.70;;;;;;;5.66;57.95;99843.31;4940983;28;119744;-86
2021/12/24 12:34:55;;;;;;;9.75;1.40;;;;;;;5.55;58.48;99858.03;4920500;28;122330;-84
2021/12/24 12:37:24;;;;;;;5.65;1.40;;;;;;;5.68;58.07;99862.69;4970875;28;122969;-85
2021/12/24 12:40:13;;;;;;;7.18;1.70;;;;;;;5.58;58.02;99850.94;4939143;28;119733;-86
2021/12/24 12:42:58;;;;;;;10.40;2.00;;;;;;;5.66;58.01;99865.09;4924990;28;122507;-87
2021/12/24 12:45:32;;;;;;;4.35;1.30;;;;;;;5.65;58.11;99863.56;4958579;28;120435;-85
2021/12/24 12:48:04;;;;;;;5.05;1.40;;;;;;;5.64;57.44;99878.38;4932348;28;120311;-88
2021/12/24 12:50:31;;;;;;;6.70;1.60;;;;;;;5.63;56.78;99876.84;4916879;28;122572;-85
2021/12/24 12:53:26;;;;;;;8.90;2.13;;;;;;;5.60;56.62;99883.91;4945776;28;120383;-86
2021/12/24 12:56:08;;;;;;;6.32;1.52;;;;;;;5.45;55.85;99908.09;4947396;28;122867;-86
2021/12/24 12:58:34;;;;;;;6.70;1.50;;;;;;;5.37;55.51;99914.91;4938284;28;124394;-88
2021/12/24 13:01:15;;;;;;;9.35;1.70;;;;;;;5.29;55.13;99924.47;4945038;28;120121;-88
2021/12/24 13:03:56;;;;;;;6.20;1.55;;;;;;;5.19;54.64;99922.81;4914056;28;121964;-90
2021/12/24 13:06:42;;;;;;;7.55;1.73;;;;;;;5.07;54.92;99923.53;4941957;28;122861;-92
2021/12/24 13:09:18;;;;;;;7.90;1.50;;;;;;;4.96;54.45;99931.22;4914201;28;120096;-89
2021/12/24 13:11:47;;;;;;;8.43;1.30;;;;;;;4.88;53.97;99945.00;4952460;28;122141;-89
2021/12/24 13:14:15;;;;;;;8.30;1.42;;;;;;;4.88;54.32;99938.81;4949758;28;121668;-88
2021/12/24 13:16:48;;;;;;;6.88;1.60;;;;;;;4.88;54.88;99946.94;4946982;28;121653;-87
2021/12/24 13:24:38;;;;;;;8.40;1.70;;;;;;;4.66;51.92;99995.63;4953693;28;122222;-88
2021/12/24 13:27:04;;;;;;;5.15;1.20;;;;;;;4.59;51.51;99965.94;4943776;28;123223;-84
2021/12/24 13:29:30;;;;;;;8.25;1.48;;;;;;;4.45;52.68;99964.34;4926185;28;119677;-87
2021/12/24 13:31:57;;;;;;;5.30;1.20;;;;;;;4.58;51.51;99991.56;4958592;28;122225;-88